Time;durP1;ratioP1;P1;durP2;ratioP2;P2;SDS_P1;SDS_P2;PMS_P1;PMS_P2;Temp;Humidity;BMP_temperature;BMP_pressure;BME280_temperature;BME280_humidity;BME280_pressure;Samples;Min_cycle;Max_cycle;Signal;HPM_P1;HPM_P2
2023/01/22 00:01:30;;;;;;;0.95;0.65;;;;;;;;;;5070694;28;20470;-84
2023/01/22 00:03:55;;;;;;;0.57;0.45;;;;;;;;;;5064212;28;20123;-85
2023/01/22 00:06:22;;;;;;;1.48;1.08;;;;;;;;;;5065655;28;20025;-85
2023/01/22 00:08:48;;;;;;;0.85;0.77;;;;;;;;;;5066389;28;20028;-85
2023/01/22 00:11:15;;;;;;;0.90;0.40;;;;;;;;;;5070556;28;20119;-85
2023/01/22 00:13:40;;;;;;;4.28;0.75;;;;;;;;;;5065625;28;20020;-86
2023/01/22 00:16:06;;;;;;;0.90;0.40;;;;;;;;;;5064991;28;20033;-86
2023/01/22 00:18:32;;;;;;;0.82;0.70;;;;;;;;;;5061944;28;20476;-86
2023/01/22 00:20:57;;;;;;;1.00;0.63;;;;;;;;;;5059557;28;20059;-85
2023/01/22 00:23:23;;;;;;;1.65;1.27;;;;;;;;;;5066281;28;20051;-86
2023/01/22 00:25:58;;;;;;;2.00;1.52;;;;;;;;;;5065223;28;20032;-86
2023/01/22 00:28:24;;;;;;;0.75;0.65;;;;;;;;;;5064319;28;20025;-87
2023/01/22 00:30:56;;;;;;;0.38;0.38;;;;;;;;;;5066101;28;20095;-88
2023/01/22 00:33:22;;;;;;;0.80;0.50;;;;;;;;;;5062416;28;20056;-87
2023/01/22 00:35:47;;;;;;;2.75;0.45;;;;;;;;;;5063783;28;20024;-87
2023/01/22 00:38:13;;;;;;;0.80;0.50;;;;;;;;;;5066159;28;20028;-87
2023/01/22 00:40:38;;;;;;;0.30;0.30;;;;;;;;;;5065105;28;20024;-87
2023/01/22 00:43:06;;;;;;;0.50;0.50;;;;;;;;;;5062957;28;20388;-87
2023/01/22 00:45:32;;;;;;;0.80;0.80;;;;;;;;;;5065131;28;20048;-87
2023/01/22 00:47:58;;;;;;;0.57;0.57;;;;;;;;;;5065401;28;20017;-88
2023/01/22 00:50:24;;;;;;;0.20;0.20;;;;;;;;;;5063431;28;20031;-88
2023/01/22 00:52:50;;;;;;;0.43;0.43;;;;;;;;;;5058526;28;20087;-88
2023/01/22 00:55:16;;;;;;;0.55;0.38;;;;;;;;;;5059243;28;20112;-87
2023/01/22 00:57:41;;;;;;;0.30;0.30;;;;;;;;;;5065856;28;20464;-87
2023/01/22 01:00:08;;;;;;;0.30;0.30;;;;;;;;;;5060744;28;20074;-86
2023/01/22 01:03:25;;;;;;;0.32;0.32;;;;;;;;;;5062146;28;20033;-87
2023/01/22 01:05:19;;;;;;;0.20;0.20;;;;;;;;;;5061182;28;20047;-87
2023/01/22 01:07:44;;;;;;;0.30;0.30;;;;;;;;;;5065284;28;20021;-87
2023/01/22 01:10:10;;;;;;;0.45;0.45;;;;;;;;;;5058144;28;20097;-87
2023/01/22 01:12:45;;;;;;;0.60;0.60;;;;;;;;;;5061344;28;20418;-87
2023/01/22 01:15:10;;;;;;;1.98;1.05;;;;;;;;;;5062400;28;20101;-88
2023/01/22 01:17:36;;;;;;;15.27;1.42;;;;;;;;;;5061487;28;20499;-89
2023/01/22 01:20:02;;;;;;;0.80;0.80;;;;;;;;;;5060749;28;20024;-87
2023/01/22 01:22:27;;;;;;;3.03;1.40;;;;;;;;;;5063337;28;20020;-87
2023/01/22 01:24:53;;;;;;;1.02;0.60;;;;;;;;;;5061294;28;20112;-87
2023/01/22 01:27:24;;;;;;;1.00;0.73;;;;;;;;;;5062278;28;22100;-86
2023/01/22 01:29:49;;;;;;;0.65;0.65;;;;;;;;;;5060797;28;20410;-86
2023/01/22 01:32:15;;;;;;;1.30;1.20;;;;;;;;;;5067029;28;20024;-86
2023/01/22 01:34:40;;;;;;;2.08;1.30;;;;;;;;;;5065283;28;20032;-86
2023/01/22 01:37:05;;;;;;;2.00;1.27;;;;;;;;;;5068355;28;20365;-87
2023/01/22 01:39:31;;;;;;;2.38;2.05;;;;;;;;;;5060586;28;20530;-89
2023/01/22 01:41:56;;;;;;;0.90;0.57;;;;;;;;;;5066566;28;20046;-87
2023/01/22 01:44:23;;;;;;;0.90;0.52;;;;;;;;;;5062219;28;20053;-87
2023/01/22 01:46:52;;;;;;;1.77;0.80;;;;;;;;;;5056886;28;20052;-87
2023/01/22 01:49:42;;;;;;;0.30;0.30;;;;;;;;;;5060942;28;20021;-87
2023/01/22 01:52:11;;;;;;;0.30;0.30;;;;;;;;;;5060086;28;20032;-88
2023/01/22 01:54:38;;;;;;;0.20;0.20;;;;;;;;;;5063656;28;20501;-86
2023/01/22 01:57:11;;;;;;;7.20;0.73;;;;;;;;;;5066063;28;20037;-87
2023/01/22 01:59:37;;;;;;;0.30;0.30;;;;;;;;;;5059499;28;20021;-87
2023/01/22 02:02:03;;;;;;;0.73;0.50;;;;;;;;;;5063758;28;20039;-88
2023/01/22 02:04:29;;;;;;;0.38;0.32;;;;;;;;;;5061060;28;20017;-88
2023/01/22 02:06:55;;;;;;;0.40;0.40;;;;;;;;;;5066143;28;20111;-88
2023/01/22 02:09:20;;;;;;;0.50;0.40;;;;;;;;;;5064993;28;20048;-87
2023/01/22 02:11:48;;;;;;;0.28;0.28;;;;;;;;;;5065413;28;20033;-88
2023/01/22 02:14:22;;;;;;;0.63;0.43;;;;;;;;;;5058966;28;20031;-86
2023/01/22 02:16:58;;;;;;;0.90;0.40;;;;;;;;;;5061161;28;20067;-86
2023/01/22 02:19:24;;;;;;;0.75;0.73;;;;;;;;;;5058481;28;20562;-87
2023/01/22 02:21:49;;;;;;;0.32;0.32;;;;;;;;;;5063151;28;20021;-86
2023/01/22 02:24:16;;;;;;;1.83;0.90;;;;;;;;;;5063222;28;20024;-86
2023/01/22 02:26:43;;;;;;;0.40;0.40;;;;;;;;;;5066986;28;20044;-86
2023/01/22 02:29:11;;;;;;;0.30;0.30;;;;;;;;;;5065072;28;20470;-86
2023/01/22 02:31:38;;;;;;;1.55;0.75;;;;;;;;;;5069110;28;20029;-88
2023/01/22 02:34:04;;;;;;;0.63;0.30;;;;;;;;;;5061856;28;20480;-88
2023/01/22 02:36:32;;;;;;;1.33;1.00;;;;;;;;;;5067940;28;20040;-87
2023/01/22 02:38:58;;;;;;;8.60;0.85;;;;;;;;;;5064112;28;20025;-87
2023/01/22 02:41:24;;;;;;;4.57;0.73;;;;;;;;;;5062113;28;20495;-88
2023/01/22 02:43:50;;;;;;;0.20;0.20;;;;;;;;;;5058973;28;20035;-87
2023/01/22 02:46:16;;;;;;;0.43;0.22;;;;;;;;;;5062034;28;20045;-87
2023/01/22 02:48:41;;;;;;;1.08;0.70;;;;;;;;;;5067931;28;20108;-85
2023/01/22 02:51:07;;;;;;;0.25;0.25;;;;;;;;;;5065042;28;20566;-87
2023/01/22 02:53:32;;;;;;;0.60;0.45;;;;;;;;;;5061080;28;20040;-86
2023/01/22 02:55:58;;;;;;;0.22;0.22;;;;;;;;;;5055791;28;20112;-88
2023/01/22 02:58:24;;;;;;;0.20;0.20;;;;;;;;;;5066575;28;20036;-86
2023/01/22 03:00:49;;;;;;;1.15;1.08;;;;;;;;;;5065082;28;20052;-87
2023/01/22 03:03:17;;;;;;;0.20;0.20;;;;;;;;;;5067846;28;20115;-88
2023/01/22 03:05:51;;;;;;;0.30;0.30;;;;;;;;;;5065391;28;20115;-88
2023/01/22 03:08:18;;;;;;;0.55;0.50;;;;;;;;;;5067581;28;20465;-88
2023/01/22 03:10:44;;;;;;;1.05;0.82;;;;;;;;;;5063226;28;20380;-88
2023/01/22 03:21:22;;;;;;;0.52;0.52;;;;;;;;;;5069389;28;20132;-88
2023/01/22 03:23:55;;;;;;;0.77;0.77;;;;;;;;;;5065054;28;20064;-89
2023/01/22 03:27:08;;;;;;;;;;;;;;;;;;;;;
2023/01/22 03:30:15;;;;;;;;;;;;;;;;;;;;;
2023/01/22 03:32:44;;;;;;;0.50;0.50;;;;;;;;;;5066302;28;20115;-89
2023/01/22 03:35:16;;;;;;;0.45;0.45;;;;;;;;;;5066106;28;20022;-89
2023/01/22 03:37:41;;;;;;;0.38;0.32;;;;;;;;;;5064855;28;20135;-89
2023/01/22 03:40:08;;;;;;;0.45;0.45;;;;;;;;;;5065339;28;20041;-88
2023/01/22 03:42:34;;;;;;;1.13;0.88;;;;;;;;;;5066989;28;20530;-87
2023/01/22 03:44:59;;;;;;;0.43;0.43;;;;;;;;;;5061493;28;20029;-87
2023/01/22 03:47:25;;;;;;;0.93;0.57;;;;;;;;;;5063664;28;20044;-87
2023/01/22 03:49:50;;;;;;;0.32;0.32;;;;;;;;;;5064444;28;20025;-87
2023/01/22 03:52:15;;;;;;;1.70;1.60;;;;;;;;;;5062828;28;20089;-87
2023/01/22 03:54:41;;;;;;;3.78;2.60;;;;;;;;;;5067672;28;20051;-88
2023/01/22 03:57:06;;;;;;;1.50;1.40;;;;;;;;;;5063391;28;20028;-87
2023/01/22 03:59:32;;;;;;;1.02;0.73;;;;;;;;;;5064523;28;20025;-88
2023/01/22 04:01:57;;;;;;;2.95;1.05;;;;;;;;;;5065211;28;20446;-87
2023/01/22 04:04:23;;;;;;;0.47;0.47;;;;;;;;;;5067219;28;20048;-88
2023/01/22 04:06:48;;;;;;;2.65;0.60;;;;;;;;;;5066647;28;20024;-88
2023/01/22 04:09:14;;;;;;;2.05;0.88;;;;;;;;;;5063947;28;20170;-88
2023/01/22 04:11:39;;;;;;;2.28;0.68;;;;;;;;;;5062635;28;20498;-87
2023/01/22 04:14:05;;;;;;;1.17;1.08;;;;;;;;;;5064936;28;20032;-88
2023/01/22 04:16:30;;;;;;;0.57;0.57;;;;;;;;;;5061841;28;20173;-88
2023/01/22 04:18:55;;;;;;;0.43;0.43;;;;;;;;;;5058882;28;20029;-88
2023/01/22 04:21:21;;;;;;;0.28;0.28;;;;;;;;;;5065773;28;20020;-88
2023/01/22 04:23:46;;;;;;;0.38;0.32;;;;;;;;;;5060204;28;20519;-87
2023/01/22 04:26:12;;;;;;;0.50;0.43;;;;;;;;;;5062370;28;20084;-87
2023/01/22 04:28:37;;;;;;;1.27;0.75;;;;;;;;;;5064404;28;20025;-87
2023/01/22 04:31:03;;;;;;;0.68;0.55;;;;;;;;;;5065185;28;20107;-88
2023/01/22 04:33:29;;;;;;;0.68;0.60;;;;;;;;;;5065831;28;20029;-87
2023/01/22 04:35:54;;;;;;;0.75;0.50;;;;;;;;;;5066797;28;20160;-88
2023/01/22 04:38:20;;;;;;;1.85;0.70;;;;;;;;;;5066584;28;20158;-87
2023/01/22 04:40:46;;;;;;;0.52;0.50;;;;;;;;;;5056437;28;20029;-87
2023/01/22 04:43:11;;;;;;;0.20;0.20;;;;;;;;;;5062348;28;20033;-88
2023/01/22 04:45:37;;;;;;;0.70;0.45;;;;;;;;;;5063391;28;20072;-88
2023/01/22 04:48:03;;;;;;;0.80;0.40;;;;;;;;;;5062944;28;20028;-88
2023/01/22 04:50:31;;;;;;;0.45;0.45;;;;;;;;;;5065201;28;20032;-88
2023/01/22 04:53:31;;;;;;;1.40;0.85;;;;;;;;;;5057794;28;20045;-88
2023/01/22 04:56:22;;;;;;;;;;;;;;;;;;;;;
2023/01/22 04:59:42;;;;;;;0.30;0.30;;;;;;;;;;5064720;28;19927;-88
2023/01/22 05:02:07;;;;;;;;;;;;;;;;;;5064147;28;20037;-87
2023/01/22 05:04:33;;;;;;;1.05;0.85;;;;;;;;;;5061982;28;19901;-88
2023/01/22 05:07:08;;;;;;;;;;;;;;;;;;;;;
2023/01/22 05:09:36;;;;;;;0.50;0.50;;;;;;;;;;5061294;28;20017;-88
2023/01/22 05:12:02;;;;;;;0.47;0.38;;;;;;;;;;5060419;28;20387;-86
2023/01/22 05:14:27;;;;;;;0.50;0.40;;;;;;;;;;5057119;28;20112;-87
2023/01/22 05:16:53;;;;;;;0.73;0.73;;;;;;;;;;5060043;28;20384;-87
2023/01/22 05:19:18;;;;;;;0.30;0.30;;;;;;;;;;5058624;28;20117;-87
2023/01/22 05:21:44;;;;;;;0.30;0.30;;;;;;;;;;5057164;28;20105;-87
2023/01/22 05:24:09;;;;;;;0.20;0.20;;;;;;;;;;5060598;28;20033;-87
2023/01/22 05:26:34;;;;;;;0.17;0.17;;;;;;;;;;5055038;28;20024;-86
2023/01/22 05:29:00;;;;;;;0.30;0.30;;;;;;;;;;5057481;28;20074;-85
2023/01/22 05:31:25;;;;;;;0.20;0.20;;;;;;;;;;5056425;28;20025;-85
2023/01/22 05:33:51;;;;;;;0.30;0.30;;;;;;;;;;5059364;28;20506;-86
2023/01/22 05:36:16;;;;;;;0.93;0.50;;;;;;;;;;5056162;28;20433;-87
2023/01/22 05:38:41;;;;;;;0.25;0.25;;;;;;;;;;5058064;28;20025;-88
2023/01/22 05:41:07;;;;;;;0.90;0.45;;;;;;;;;;5056524;28;20017;-87
2023/01/22 05:43:35;;;;;;;0.20;0.20;;;;;;;;;;5067910;28;20423;-88
2023/01/22 05:46:01;;;;;;;0.43;0.43;;;;;;;;;;5058386;28;20061;-88
2023/01/22 05:48:31;;;;;;;0.35;0.35;;;;;;;;;;5055922;28;20226;-88
2023/01/22 05:51:05;;;;;;;0.40;0.40;;;;;;;;;;5064444;28;20028;-88
2023/01/22 05:53:33;;;;;;;0.30;0.30;;;;;;;;;;5064548;28;20055;-89
2023/01/22 05:56:01;;;;;;;1.05;0.40;;;;;;;;;;5056790;28;20024;-87
2023/01/22 05:58:27;;;;;;;1.00;0.52;;;;;;;;;;5059513;28;20031;-86
2023/01/22 06:00:53;;;;;;;1.13;0.73;;;;;;;;;;5060927;28;20024;-87
2023/01/22 06:03:18;;;;;;;0.60;0.60;;;;;;;;;;5061374;28;20036;-87
2023/01/22 06:05:44;;;;;;;2.00;0.45;;;;;;;;;;5064250;28;20596;-89
2023/01/22 06:08:09;;;;;;;0.80;0.63;;;;;;;;;;5061328;28;20465;-87
2023/01/22 06:10:35;;;;;;;0.57;0.43;;;;;;;;;;5060002;28;20029;-88
2023/01/22 06:13:01;;;;;;;1.05;0.70;;;;;;;;;;5063922;28;20043;-86
2023/01/22 06:15:26;;;;;;;0.95;0.90;;;;;;;;;;5060313;28;20030;-86
2023/01/22 06:17:51;;;;;;;2.65;1.73;;;;;;;;;;5066227;28;20024;-87
2023/01/22 06:20:17;;;;;;;0.52;0.52;;;;;;;;;;5065289;28;20092;-86
2023/01/22 06:22:42;;;;;;;1.27;0.80;;;;;;;;;;5061290;28;20031;-84
2023/01/22 06:25:08;;;;;;;1.45;1.33;;;;;;;;;;5066544;28;20102;-84
2023/01/22 06:27:34;;;;;;;10.93;1.60;;;;;;;;;;5063100;28;20082;-85
2023/01/22 06:29:59;;;;;;;1.25;1.10;;;;;;;;;;5063331;28;20028;-84
2023/01/22 06:32:25;;;;;;;2.83;2.17;;;;;;;;;;5065562;28;20037;-85
2023/01/22 06:34:50;;;;;;;2.95;1.17;;;;;;;;;;5063713;28;20020;-85
2023/01/22 06:37:16;;;;;;;0.85;0.70;;;;;;;;;;5065693;28;20037;-85
2023/01/22 06:39:41;;;;;;;2.65;1.48;;;;;;;;;;5069796;28;20024;-86
2023/01/22 06:42:07;;;;;;;1.30;0.85;;;;;;;;;;5063813;28;20035;-85
2023/01/22 06:44:32;;;;;;;1.33;0.70;;;;;;;;;;5069832;28;20028;-86
2023/01/22 06:46:57;;;;;;;0.60;0.60;;;;;;;;;;5065606;28;20447;-86
2023/01/22 06:49:23;;;;;;;1.60;0.98;;;;;;;;;;5064725;28;20465;-86
2023/01/22 06:51:48;;;;;;;1.38;1.20;;;;;;;;;;5070223;28;20028;-86
2023/01/22 06:54:14;;;;;;;8.07;0.75;;;;;;;;;;5075777;28;20021;-86
2023/01/22 06:56:39;;;;;;;0.85;0.65;;;;;;;;;;5061456;28;20029;-86
2023/01/22 06:59:08;;;;;;;1.83;1.38;;;;;;;;;;5062585;28;20159;-86
2023/01/22 07:01:33;;;;;;;1.50;1.02;;;;;;;;;;5064020;28;20021;-85
2023/01/22 07:03:59;;;;;;;0.70;0.43;;;;;;;;;;5068500;28;20021;-86
2023/01/22 07:06:24;;;;;;;1.60;1.05;;;;;;;;;;5068532;28;20031;-85
2023/01/22 07:08:49;;;;;;;3.33;2.13;;;;;;;;;;5066944;28;20046;-86
2023/01/22 07:11:15;;;;;;;3.65;2.97;;;;;;;;;;5066416;28;20025;-85
2023/01/22 07:13:41;;;;;;;1.98;1.45;;;;;;;;;;5066889;28;20059;-85
2023/01/22 07:16:07;;;;;;;3.33;2.15;;;;;;;;;;5064742;28;20044;-85
2023/01/22 07:18:33;;;;;;;1.80;1.70;;;;;;;;;;5068483;28;20064;-84
2023/01/22 07:21:03;;;;;;;3.60;2.55;;;;;;;;;;5068071;28;20021;-85
2023/01/22 07:23:29;;;;;;;;;;;;;;;;;;5064448;28;20028;-85
2023/01/22 07:25:54;;;;;;;2.17;1.45;;;;;;;;;;5068436;28;19917;-86
2023/01/22 07:28:20;;;;;;;2.63;1.90;;;;;;;;;;5067946;28;20362;-85
2023/01/22 07:30:45;;;;;;;4.43;1.92;;;;;;;;;;5060383;28;20032;-85
2023/01/22 07:33:12;;;;;;;4.18;3.20;;;;;;;;;;5070844;28;20028;-83
2023/01/22 07:35:38;;;;;;;2.97;2.15;;;;;;;;;;5066538;28;20040;-85
2023/01/22 07:38:04;;;;;;;2.92;1.88;;;;;;;;;;5066636;28;20055;-85
2023/01/22 07:40:30;;;;;;;6.95;2.83;;;;;;;;;;5069044;28;20055;-85
2023/01/22 07:42:55;;;;;;;2.05;1.67;;;;;;;;;;5068105;28;20020;-85
2023/01/22 07:45:23;;;;;;;2.30;1.95;;;;;;;;;;5065043;28;20491;-87
2023/01/22 07:47:56;;;;;;;2.13;1.60;;;;;;;;;;5067180;28;20461;-85
2023/01/22 07:50:23;;;;;;;2.25;1.63;;;;;;;;;;5069641;28;20664;-86
2023/01/22 07:52:50;;;;;;;2.92;1.35;;;;;;;;;;5070971;28;20028;-87
2023/01/22 07:55:16;;;;;;;1.92;1.27;;;;;;;;;;5068879;28;20116;-86
2023/01/22 07:57:42;;;;;;;2.85;1.98;;;;;;;;;;5070664;28;20059;-84
2023/01/22 08:00:09;;;;;;;4.60;1.80;;;;;;;;;;5065820;28;20034;-85
2023/01/22 08:02:36;;;;;;;1.70;1.10;;;;;;;;;;5069087;28;20496;-90
2023/01/22 08:05:03;;;;;;;2.47;1.77;;;;;;;;;;5071990;28;20038;-85
2023/01/22 08:07:29;;;;;;;2.65;0.95;;;;;;;;;;5067405;28;20029;-86
2023/01/22 08:09:55;;;;;;;2.65;1.13;;;;;;;;;;5067950;28;20020;-85
2023/01/22 08:12:20;;;;;;;8.63;4.65;;;;;;;;;;5067519;28;20028;-85
2023/01/22 08:14:46;;;;;;;8.40;5.72;;;;;;;;;;5062176;28;20024;-84
2023/01/22 08:17:11;;;;;;;7.25;4.25;;;;;;;;;;5068533;28;20027;-87
2023/01/22 08:19:37;;;;;;;2.53;1.50;;;;;;;;;;5062673;28;20029;-84
2023/01/22 08:22:03;;;;;;;1.33;1.00;;;;;;;;;;5063620;28;20370;-83
2023/01/22 08:24:28;;;;;;;3.67;1.70;;;;;;;;;;5069470;28;20035;-84
2023/01/22 08:26:55;;;;;;;3.03;1.50;;;;;;;;;;5068174;28;20029;-85
2023/01/22 08:29:20;;;;;;;3.50;1.48;;;;;;;;;;5068004;28;20051;-85
2023/01/22 08:31:46;;;;;;;0.80;0.70;;;;;;;;;;5063576;28;20033;-84
2023/01/22 08:34:11;;;;;;;2.42;1.65;;;;;;;;;;5061098;28;20028;-84
2023/01/22 08:36:37;;;;;;;1.65;0.80;;;;;;;;;;5064503;28;20472;-85
2023/01/22 08:39:02;;;;;;;2.38;1.08;;;;;;;;;;5058296;28;20041;-85
2023/01/22 08:41:28;;;;;;;3.30;2.55;;;;;;;;;;5059428;28;20029;-84
2023/01/22 08:43:53;;;;;;;2.88;2.30;;;;;;;;;;5055247;28;20369;-85
2023/01/22 08:46:19;;;;;;;7.13;2.97;;;;;;;;;;5055266;28;20048;-86
2023/01/22 08:48:45;;;;;;;6.35;3.42;;;;;;;;;;5062727;28;20027;-89
2023/01/22 08:51:11;;;;;;;3.58;2.78;;;;;;;;;;5061843;28;20040;-86
2023/01/22 08:53:36;;;;;;;4.72;3.53;;;;;;;;;;5059898;28;20025;-85
2023/01/22 08:56:02;;;;;;;3.97;2.92;;;;;;;;;;5060853;28;20029;-86
2023/01/22 08:58:28;;;;;;;5.55;2.58;;;;;;;;;;5060005;28;20078;-86
2023/01/22 09:00:54;;;;;;;4.78;3.55;;;;;;;;;;5064039;28;20086;-87
2023/01/22 09:03:20;;;;;;;4.18;1.98;;;;;;;;;;5060632;28;20456;-85
2023/01/22 09:05:46;;;;;;;3.10;2.20;;;;;;;;;;5056271;28;20164;-85
2023/01/22 09:08:12;;;;;;;16.10;6.90;;;;;;;;;;5057670;28;20076;-85
2023/01/22 09:10:37;;;;;;;12.82;6.32;;;;;;;;;;5063149;28;20383;-86
2023/01/22 09:13:03;;;;;;;10.55;6.18;;;;;;;;;;5058595;28;20020;-86
2023/01/22 09:15:28;;;;;;;5.57;3.33;;;;;;;;;;5062460;28;20025;-85
2023/01/22 09:17:54;;;;;;;5.25;3.70;;;;;;;;;;5058273;28;20032;-87
2023/01/22 09:20:20;;;;;;;10.40;4.78;;;;;;;;;;5061104;28;20029;-88
2023/01/22 09:22:47;;;;;;;6.03;3.97;;;;;;;;;;5057396;28;20025;-84
2023/01/22 09:25:13;;;;;;;6.65;3.22;;;;;;;;;;5058198;28;20052;-89
2023/01/22 09:27:39;;;;;;;6.50;4.00;;;;;;;;;;5055289;28;20024;-88
2023/01/22 09:30:05;;;;;;;7.03;4.13;;;;;;;;;;5058553;28;20112;-88
2023/01/22 09:32:30;;;;;;;6.30;3.65;;;;;;;;;;5062177;28;20056;-88
2023/01/22 09:34:56;;;;;;;4.93;3.13;;;;;;;;;;5064578;28;20048;-87
2023/01/22 09:37:21;;;;;;;5.35;3.30;;;;;;;;;;5061889;28;20491;-84
2023/01/22 09:39:48;;;;;;;7.13;3.65;;;;;;;;;;5063530;28;20033;-86
2023/01/22 09:42:32;;;;;;;6.13;3.65;;;;;;;;;;5059559;28;20020;-86
2023/01/22 09:45:04;;;;;;;5.60;3.30;;;;;;;;;;5057841;28;20447;-87
2023/01/22 09:47:42;;;;;;;5.47;3.58;;;;;;;;;;5060130;28;20128;-87
2023/01/22 09:50:21;;;;;;;7.25;2.92;;;;;;;;;;5061999;28;20040;-87
2023/01/22 09:52:49;;;;;;;5.28;3.05;;;;;;;;;;5056280;28;20468;-86
2023/01/22 09:55:19;;;;;;;3.13;2.13;;;;;;;;;;5060505;28;20465;-86
2023/01/22 09:57:47;;;;;;;5.47;3.17;;;;;;;;;;5059873;28;20090;-86
2023/01/22 10:00:19;;;;;;;2.33;1.55;;;;;;;;;;5060191;28;20111;-86
2023/01/22 10:03:10;;;;;;;3.83;1.58;;;;;;;;;;5058804;28;20388;-86
2023/01/22 10:05:50;;;;;;;1.90;1.42;;;;;;;;;;5054131;28;20384;-87
2023/01/22 10:08:18;;;;;;;;;;;;;;;;;;5090046;28;20021;-87
2023/01/22 10:10:51;;;;;;;1.55;1.10;;;;;;;;;;5057975;28;19931;-87
2023/01/22 10:13:26;;;;;;;0.88;0.63;;;;;;;;;;5055060;28;20469;-88
2023/01/22 10:15:54;;;;;;;1.75;1.15;;;;;;;;;;5057669;28;20040;-85
2023/01/22 10:18:44;;;;;;;0.95;0.65;;;;;;;;;;5059819;28;20025;-88
2023/01/22 10:21:23;;;;;;;2.25;0.85;;;;;;;;;;5065436;28;20119;-87
2023/01/22 10:23:50;;;;;;;0.50;0.50;;;;;;;;;;5059201;28;20036;-87
2023/01/22 10:26:17;;;;;;;1.88;0.50;;;;;;;;;;5062368;28;20050;-87
2023/01/22 10:28:47;;;;;;;1.52;1.13;;;;;;;;;;5061459;28;20024;-87
2023/01/22 10:31:20;;;;;;;3.00;1.35;;;;;;;;;;5057835;28;20548;-87
2023/01/22 10:33:45;;;;;;;1.02;0.70;;;;;;;;;;5059554;28;20028;-87
2023/01/22 10:36:13;;;;;;;4.57;2.35;;;;;;;;;;5059305;28;20025;-86
2023/01/22 10:38:39;;;;;;;5.70;1.55;;;;;;;;;;5062172;28;20028;-87
2023/01/22 10:41:04;;;;;;;1.27;1.02;;;;;;;;;;5054212;28;20033;-87
2023/01/22 10:43:36;;;;;;;2.90;1.65;;;;;;;;;;5059810;28;20082;-87
2023/01/22 10:46:25;;;;;;;20.75;10.93;;;;;;;;;;5060414;28;20051;-87
2023/01/22 10:49:02;;;;;;;4.03;3.65;;;;;;;;;;5053552;28;20033;-85
2023/01/22 10:51:36;;;;;;;1.75;1.08;;;;;;;;;;5059694;28;20542;-86
2023/01/22 10:54:02;;;;;;;0.93;0.65;;;;;;;;;;5061047;28;20060;-86
2023/01/22 10:56:33;;;;;;;1.65;1.30;;;;;;;;;;5058103;28;20047;-87
2023/01/22 10:59:02;;;;;;;2.90;1.65;;;;;;;;;;5057217;28;20112;-86
2023/01/22 11:01:34;;;;;;;3.45;1.75;;;;;;;;;;5053636;28;20084;-87
2023/01/22 11:04:18;;;;;;;3.95;1.50;;;;;;;;;;5055621;28;20025;-88
2023/01/22 11:06:48;;;;;;;3.83;2.30;;;;;;;;;;5072377;28;20032;-87
2023/01/22 11:09:19;;;;;;;3.30;1.90;;;;;;;;;;5056901;28;20082;-87
2023/01/22 11:11:51;;;;;;;1.58;1.10;;;;;;;;;;5059646;28;20036;-88
2023/01/22 11:14:40;;;;;;;5.97;2.47;;;;;;;;;;5058254;28;20032;-86
2023/01/22 11:17:32;;;;;;;1.85;1.30;;;;;;;;;;5051736;28;20476;-85
2023/01/22 11:20:03;;;;;;;1.95;1.27;;;;;;;;;;5061716;28;20067;-85
2023/01/22 11:22:39;;;;;;;3.78;1.92;;;;;;;;;;5061294;28;20040;-87
2023/01/22 11:25:09;;;;;;;1.70;1.20;;;;;;;;;;5061836;28;20025;-86
2023/01/22 11:28:00;;;;;;;1.98;1.13;;;;;;;;;;5064200;28;20070;-87
2023/01/22 11:30:58;;;;;;;3.08;1.52;;;;;;;;;;5059919;28;20021;-88
2023/01/22 11:33:42;;;;;;;1.63;1.35;;;;;;;;;;5051429;28;20033;-84
2023/01/22 11:36:34;;;;;;;6.50;3.22;;;;;;;;;;5061273;28;20036;-87
2023/01/22 11:39:15;;;;;;;6.05;3.38;;;;;;;;;;5047315;28;20041;-86
2023/01/22 11:42:08;;;;;;;2.70;1.77;;;;;;;;;;5061795;28;20697;-88
2023/01/22 11:45:04;;;;;;;5.57;1.85;;;;;;;;;;5049082;28;20043;-86
2023/01/22 11:47:52;;;;;;;4.60;1.73;;;;;;;;;;5058269;28;20495;-87
2023/01/22 11:50:33;;;;;;;3.63;1.67;;;;;;;;;;5058616;28;20032;-86
2023/01/22 11:53:17;;;;;;;6.32;1.77;;;;;;;;;;5060754;28;20029;-86
2023/01/22 11:56:02;;;;;;;14.43;7.75;;;;;;;;;;5062934;28;20025;-86
2023/01/22 11:58:53;;;;;;;16.38;10.55;;;;;;;;;;5059035;28;20486;-86
2023/01/22 12:01:36;;;;;;;11.82;7.00;;;;;;;;;;5061978;28;20112;-87
2023/01/22 12:04:10;;;;;;;3.40;1.38;;;;;;;;;;5057267;28;20477;-87
2023/01/22 12:07:08;;;;;;;0.60;0.52;;;;;;;;;;5092386;28;20107;-87
2023/01/22 12:09:45;;;;;;;1.45;0.90;;;;;;;;;;5064690;28;20017;-87
2023/01/22 12:12:40;;;;;;;1.77;1.25;;;;;;;;;;5059542;28;20024;-88
2023/01/22 12:15:28;;;;;;;3.40;1.77;;;;;;;;;;5064625;28;20060;-85
2023/01/22 12:18:30;;;;;;;1.65;1.17;;;;;;;;;;5054993;28;20021;-86
2023/01/22 12:21:20;;;;;;;4.60;2.00;;;;;;;;;;5060295;28;20037;-85
2023/01/22 12:23:55;;;;;;;1.55;1.00;;;;;;;;;;5054093;28;20031;-87
2023/01/22 12:26:26;;;;;;;0.95;0.85;;;;;;;;;;5060704;28;20081;-87
2023/01/22 12:29:08;;;;;;;1.75;1.00;;;;;;;;;;5061737;28;20062;-86
2023/01/22 12:31:48;;;;;;;0.57;0.57;;;;;;;;;;5058965;28;20108;-87
2023/01/22 12:34:33;;;;;;;3.88;1.65;;;;;;;;;;5062784;28;20025;-86
2023/01/22 12:37:00;;;;;;;1.77;0.98;;;;;;;;;;5063959;28;20040;-86
2023/01/22 12:39:34;;;;;;;1.08;0.82;;;;;;;;;;5063537;28;20472;-85
2023/01/22 12:42:36;;;;;;;0.88;0.77;;;;;;;;;;5057532;28;20021;-87
2023/01/22 12:45:01;;;;;;;0.93;0.75;;;;;;;;;;5052412;28;20071;-87
2023/01/22 12:47:48;;;;;;;1.52;0.73;;;;;;;;;;5059504;28;20049;-88
2023/01/22 12:50:24;;;;;;;0.45;0.40;;;;;;;;;;5059592;28;20028;-85
2023/01/22 12:53:21;;;;;;;1.55;0.75;;;;;;;;;;5058699;28;20033;-87
2023/01/22 12:56:31;;;;;;;1.05;0.60;;;;;;;;;;5061320;28;20472;-87
2023/01/22 12:58:58;;;;;;;0.28;0.28;;;;;;;;;;5056059;28;20411;-86
2023/01/22 13:01:31;;;;;;;0.35;0.35;;;;;;;;;;5059931;28;20024;-85
2023/01/22 13:04:00;;;;;;;0.90;0.75;;;;;;;;;;5065713;28;20174;-84
2023/01/22 13:06:31;;;;;;;0.68;0.60;;;;;;;;;;5060287;28;20091;-85
2023/01/22 13:08:57;;;;;;;1.17;0.70;;;;;;;;;;5053787;28;20021;-87
2023/01/22 13:11:27;;;;;;;1.90;1.15;;;;;;;;;;5058709;28;20025;-86
2023/01/22 13:13:56;;;;;;;2.90;1.23;;;;;;;;;;5056917;28;20029;-88
2023/01/22 13:16:34;;;;;;;3.20;1.73;;;;;;;;;;5062751;28;20051;-85
2023/01/22 13:19:28;;;;;;;1.48;0.82;;;;;;;;;;5060696;28;20033;-85
2023/01/22 13:21:57;;;;;;;1.15;0.90;;;;;;;;;;5060273;28;20052;-86
2023/01/22 13:24:23;;;;;;;0.90;0.90;;;;;;;;;;5064816;28;20078;-86
2023/01/22 13:27:00;;;;;;;2.85;0.63;;;;;;;;;;5055816;28;20489;-86
2023/01/22 13:29:27;;;;;;;1.10;0.55;;;;;;;;;;5059042;28;20396;-85
2023/01/22 13:31:55;;;;;;;1.73;1.02;;;;;;;;;;5060461;28;20033;-85
2023/01/22 13:34:22;;;;;;;0.95;0.63;;;;;;;;;;5061906;28;20472;-86
2023/01/22 13:36:48;;;;;;;0.52;0.52;;;;;;;;;;5057389;28;20469;-86
2023/01/22 13:39:20;;;;;;;2.47;0.93;;;;;;;;;;5064850;28;20028;-86
2023/01/22 13:41:49;;;;;;;1.10;0.93;;;;;;;;;;5060438;28;20021;-85
2023/01/22 13:44:20;;;;;;;0.32;0.32;;;;;;;;;;5055431;28;20358;-85
2023/01/22 13:46:46;;;;;;;1.13;0.70;;;;;;;;;;5058602;28;20068;-85
2023/01/22 13:49:16;;;;;;;0.75;0.43;;;;;;;;;;5063330;28;20021;-86
2023/01/22 13:51:42;;;;;;;0.65;0.40;;;;;;;;;;5057774;28;20461;-85
2023/01/22 13:54:17;;;;;;;0.20;0.20;;;;;;;;;;5057943;28;20376;-86
2023/01/22 13:56:43;;;;;;;0.50;0.50;;;;;;;;;;5064136;28;20035;-85
2023/01/22 13:59:23;;;;;;;0.70;0.70;;;;;;;;;;5059001;28;20028;-86
2023/01/22 14:01:49;;;;;;;0.65;0.65;;;;;;;;;;5057260;28;20039;-89
2023/01/22 14:04:41;;;;;;;1.05;0.60;;;;;;;;;;5056048;28;20020;-84
2023/01/22 14:07:06;;;;;;;0.75;0.65;;;;;;;;;;5058012;28;20029;-86
2023/01/22 14:09:37;;;;;;;4.53;1.95;;;;;;;;;;5057890;28;20078;-87
2023/01/22 14:12:26;;;;;;;4.00;1.95;;;;;;;;;;5059948;28;20120;-86
2023/01/22 14:14:53;;;;;;;2.55;2.15;;;;;;;;;;5050693;28;20119;-89
2023/01/22 14:17:30;;;;;;;1.15;1.05;;;;;;;;;;5054412;28;20078;-87
2023/01/22 14:19:56;;;;;;;6.88;2.10;;;;;;;;;;5051109;28;20543;-85
2023/01/22 14:22:22;;;;;;;2.78;1.70;;;;;;;;;;5068412;28;20036;-85
2023/01/22 14:24:51;;;;;;;4.20;2.38;;;;;;;;;;5052119;28;20025;-87
2023/01/22 14:27:37;;;;;;;4.10;2.30;;;;;;;;;;5054945;28;20020;-88
2023/01/22 14:30:03;;;;;;;1.08;0.95;;;;;;;;;;5054791;28;20044;-85
2023/01/22 14:32:29;;;;;;;2.60;1.85;;;;;;;;;;5051517;28;20043;-85
2023/01/22 14:34:54;;;;;;;1.98;1.60;;;;;;;;;;5060199;28;20116;-86
2023/01/22 14:37:20;;;;;;;4.30;1.73;;;;;;;;;;5059778;28;20543;-85
2023/01/22 14:39:45;;;;;;;1.20;1.10;;;;;;;;;;5058761;28;20036;-87
2023/01/22 14:42:11;;;;;;;2.70;1.70;;;;;;;;;;5055780;28;20060;-84
2023/01/22 14:44:36;;;;;;;1.27;1.17;;;;;;;;;;5056091;28;20021;-85
2023/01/22 14:47:02;;;;;;;1.77;1.52;;;;;;;;;;5053620;28;20055;-87
2023/01/22 14:49:28;;;;;;;3.95;2.53;;;;;;;;;;5060116;28;20017;-86
2023/01/22 14:51:54;;;;;;;16.35;9.60;;;;;;;;;;5055704;28;20025;-88
2023/01/22 14:54:19;;;;;;;3.38;2.15;;;;;;;;;;5060450;28;20048;-86
2023/01/22 14:56:45;;;;;;;1.85;1.02;;;;;;;;;;5066605;28;20063;-87
2023/01/22 14:59:10;;;;;;;1.15;0.88;;;;;;;;;;5061721;28;20025;-87
2023/01/22 15:01:36;;;;;;;1.17;0.80;;;;;;;;;;5060864;28;20024;-88
2023/01/22 15:04:05;;;;;;;2.88;0.75;;;;;;;;;;5065438;28;20076;-86
2023/01/22 15:06:31;;;;;;;0.90;0.57;;;;;;;;;;5059120;28;20040;-86
2023/01/22 15:08:56;;;;;;;0.50;0.50;;;;;;;;;;5061388;28;20103;-88
2023/01/22 15:11:22;;;;;;;2.25;0.98;;;;;;;;;;5064714;28;20028;-87
2023/01/22 15:13:48;;;;;;;1.00;0.80;;;;;;;;;;5062117;28;20354;-87